Pagrindinis puslapis
METAR-TAF:

METAR-TAF

Oro uostai :

Mitilėnė-Lesbas, Graikija

platuma: 39-04N, ilguma: 026-36E, Aukštis: 3 m

Dabartinis oras

Ataskaita buvo paskelbta 39 minutes, ne 07:50 UTC
Vėjas 8 kt iš Šiaurės
Temperatūra 25°C
Drėgmė 74%
Slėgis 1008 hPa
Matomumas 10 km arba daugiau
nėra debesų žemiau 1500 m ir nėra kamuolinių lietaus debesų

METAR: LGMT 050750Z 35008KT CAVOK 25/20 Q1008

Laikas: 11:29 (08:29 UTC)

Prognozė

Ataskaita buvo paskelbta 3 valandos ir 29 minutes, ne 05:00 UTC
Prognozė galioja nuo 05 metu 06 UTC su 05 metu 15 UTC
Vėjas 3 kt nuo kintamojo kryptimis
Matomumas 10 km arba daugiau
Mažai debesys ne aukštis 2000 ft
Tapsmas
nuo 05 metu 06 UTC su 05 metu 08 UTC
Vėjas 10 kt iš Šiaurės/Šiaurės Vakarų

TAF: LGMT 050500Z 0506/0515 VRB03KT 9999 FEW020 BECMG 0506/0508 33010KT

Orai ataskaitas ir orų prognozės (METAR, TAF).

turimą stotys yra geltonos ir raudonos taškus žemėlapyje.

Perkelti pele per norėdami pamatyti stoties vardą.

Tada spustelėkite, norėdami matyti oro stebėjimo ir prognozės.

Norėdami pakeisti žemėlapį: spustelėkite ant žalios mygtukų su juodo kryžiaus žemyn,; žalią mygtuką su brūkšneliu, jei norite nutolinti; arba žalių rodyklių gretimoms žemėlapius.


METAR-TAF: